sensor_id;sensor_type;location;lat;lon;timestamp;temperature;humidity
13673;DHT22;6909;52.202;9.876;2022-11-15T00:00:53;7.80;99.90
13673;DHT22;6909;52.202;9.876;2022-11-15T00:03:21;7.80;99.90
13673;DHT22;6909;52.202;9.876;2022-11-15T00:05:48;7.90;99.90
13673;DHT22;6909;52.202;9.876;2022-11-15T00:08:16;7.80;99.90
13673;DHT22;6909;52.202;9.876;2022-11-15T00:10:46;7.70;99.90
13673;DHT22;6909;52.202;9.876;2022-11-15T00:13:19;7.70;99.90
13673;DHT22;6909;52.202;9.876;2022-11-15T00:15:46;7.80;99.90
13673;DHT22;6909;52.202;9.876;2022-11-15T00:18:14;7.80;99.90
13673;DHT22;6909;52.202;9.876;2022-11-15T00:20:41;7.80;99.90
13673;DHT22;6909;52.202;9.876;2022-11-15T00:23:08;7.80;99.90
13673;DHT22;6909;52.202;9.876;2022-11-15T00:25:36;7.90;99.90
13673;DHT22;6909;52.202;9.876;2022-11-15T00:28:03;8.10;99.90
13673;DHT22;6909;52.202;9.876;2022-11-15T00:30:30;8.30;99.90
13673;DHT22;6909;52.202;9.876;2022-11-15T00:33:01;8.50;99.90
13673;DHT22;6909;52.202;9.876;2022-11-15T00:35:28;8.60;99.90
13673;DHT22;6909;52.202;9.876;2022-11-15T00:37:55;8.70;99.90
13673;DHT22;6909;52.202;9.876;2022-11-15T00:40:21;8.90;99.90
13673;DHT22;6909;52.202;9.876;2022-11-15T00:42:49;9.30;99.90
13673;DHT22;6909;52.202;9.876;2022-11-15T00:45:16;9.60;99.90
13673;DHT22;6909;52.202;9.876;2022-11-15T00:47:44;9.50;99.90
13673;DHT22;6909;52.202;9.876;2022-11-15T00:50:11;9.60;99.90
13673;DHT22;6909;52.202;9.876;2022-11-15T00:52:38;9.70;99.90
13673;DHT22;6909;52.202;9.876;2022-11-15T00:55:05;9.90;99.90
13673;DHT22;6909;52.202;9.876;2022-11-15T00:57:32;10.00;99.90
13673;DHT22;6909;52.202;9.876;2022-11-15T01:00:00;10.10;99.90
13673;DHT22;6909;52.202;9.876;2022-11-15T01:02:27;10.10;99.90
13673;DHT22;6909;52.202;9.876;2022-11-15T01:04:53;10.20;99.90
13673;DHT22;6909;52.202;9.876;2022-11-15T01:07:20;10.20;99.90
13673;DHT22;6909;52.202;9.876;2022-11-15T01:09:47;10.10;99.90
13673;DHT22;6909;52.202;9.876;2022-11-15T01:12:13;10.10;99.90
13673;DHT22;6909;52.202;9.876;2022-11-15T01:14:40;10.10;99.90
13673;DHT22;6909;52.202;9.876;2022-11-15T01:17:08;10.00;99.90
13673;DHT22;6909;52.202;9.876;2022-11-15T01:19:35;9.90;99.90
13673;DHT22;6909;52.202;9.876;2022-11-15T01:22:02;9.90;99.90
13673;DHT22;6909;52.202;9.876;2022-11-15T01:24:28;9.90;99.90
13673;DHT22;6909;52.202;9.876;2022-11-15T01:26:55;9.80;99.90
13673;DHT22;6909;52.202;9.876;2022-11-15T01:29:22;9.70;99.90
13673;DHT22;6909;52.202;9.876;2022-11-15T01:31:52;9.70;99.90
13673;DHT22;6909;52.202;9.876;2022-11-15T01:34:21;9.70;99.90
13673;DHT22;6909;52.202;9.876;2022-11-15T01:36:47;9.80;99.90
13673;DHT22;6909;52.202;9.876;2022-11-15T01:39:14;9.80;99.90
13673;DHT22;6909;52.202;9.876;2022-11-15T01:41:42;9.90;99.90
13673;DHT22;6909;52.202;9.876;2022-11-15T01:44:44;9.90;99.90
13673;DHT22;6909;52.202;9.876;2022-11-15T01:47:14;10.00;99.90
13673;DHT22;6909;52.202;9.876;2022-11-15T01:49:49;10.10;99.90
13673;DHT22;6909;52.202;9.876;2022-11-15T01:52:20;10.30;99.90
13673;DHT22;6909;52.202;9.876;2022-11-15T01:54:50;10.30;99.90
13673;DHT22;6909;52.202;9.876;2022-11-15T01:57:19;10.40;99.90
13673;DHT22;6909;52.202;9.876;2022-11-15T01:59:46;10.30;99.90
13673;DHT22;6909;52.202;9.876;2022-11-15T02:02:13;10.40;99.90
13673;DHT22;6909;52.202;9.876;2022-11-15T02:04:43;10.50;99.90
13673;DHT22;6909;52.202;9.876;2022-11-15T02:07:13;10.60;99.90
13673;DHT22;6909;52.202;9.876;2022-11-15T02:09:41;10.60;99.90
13673;DHT22;6909;52.202;9.876;2022-11-15T02:12:09;10.60;99.90
13673;DHT22;6909;52.202;9.876;2022-11-15T02:14:38;10.60;99.90
13673;DHT22;6909;52.202;9.876;2022-11-15T02:17:16;10.70;99.90
13673;DHT22;6909;52.202;9.876;2022-11-15T02:20:10;10.70;99.90
13673;DHT22;6909;52.202;9.876;2022-11-15T02:22:50;10.70;99.90
13673;DHT22;6909;52.202;9.876;2022-11-15T02:25:37;10.80;99.90
13673;DHT22;6909;52.202;9.876;2022-11-15T02:28:30;10.90;99.90
13673;DHT22;6909;52.202;9.876;2022-11-15T02:31:04;10.90;99.90
13673;DHT22;6909;52.202;9.876;2022-11-15T02:33:38;10.90;99.90
13673;DHT22;6909;52.202;9.876;2022-11-15T02:36:11;10.80;99.90
13673;DHT22;6909;52.202;9.876;2022-11-15T02:38:45;10.90;99.90
13673;DHT22;6909;52.202;9.876;2022-11-15T02:41:16;11.00;99.90
13673;DHT22;6909;52.202;9.876;2022-11-15T02:43:48;11.00;99.90
13673;DHT22;6909;52.202;9.876;2022-11-15T02:46:32;11.10;99.90
13673;DHT22;6909;52.202;9.876;2022-11-15T02:49:17;11.10;99.90
13673;DHT22;6909;52.202;9.876;2022-11-15T02:51:46;11.00;99.90
13673;DHT22;6909;52.202;9.876;2022-11-15T02:54:15;11.10;99.90
13673;DHT22;6909;52.202;9.876;2022-11-15T02:56:45;11.10;99.90
13673;DHT22;6909;52.202;9.876;2022-11-15T02:59:37;11.30;99.90
13673;DHT22;6909;52.202;9.876;2022-11-15T03:02:17;11.30;99.90
13673;DHT22;6909;52.202;9.876;2022-11-15T03:04:52;11.30;99.90
13673;DHT22;6909;52.202;9.876;2022-11-15T03:07:24;11.00;99.90
13673;DHT22;6909;52.202;9.876;2022-11-15T03:09:57;10.90;99.90
13673;DHT22;6909;52.202;9.876;2022-11-15T03:12:30;10.90;99.90
13673;DHT22;6909;52.202;9.876;2022-11-15T03:15:03;10.90;99.90
13673;DHT22;6909;52.202;9.876;2022-11-15T03:17:35;11.00;99.90
13673;DHT22;6909;52.202;9.876;2022-11-15T03:20:06;10.90;99.90
13673;DHT22;6909;52.202;9.876;2022-11-15T03:22:36;10.80;99.90
13673;DHT22;6909;52.202;9.876;2022-11-15T03:25:07;10.70;99.90
13673;DHT22;6909;52.202;9.876;2022-11-15T03:27:38;10.60;99.90
13673;DHT22;6909;52.202;9.876;2022-11-15T03:30:08;10.50;99.90
13673;DHT22;6909;52.202;9.876;2022-11-15T03:32:44;10.50;99.90
13673;DHT22;6909;52.202;9.876;2022-11-15T03:35:14;10.50;99.90
13673;DHT22;6909;52.202;9.876;2022-11-15T03:37:46;10.40;99.90
13673;DHT22;6909;52.202;9.876;2022-11-15T03:40:16;10.60;99.90
13673;DHT22;6909;52.202;9.876;2022-11-15T03:42:46;10.80;99.90
13673;DHT22;6909;52.202;9.876;2022-11-15T03:45:17;10.80;99.90
13673;DHT22;6909;52.202;9.876;2022-11-15T03:47:51;10.80;99.90
13673;DHT22;6909;52.202;9.876;2022-11-15T03:50:21;10.60;99.90
13673;DHT22;6909;52.202;9.876;2022-11-15T03:52:49;10.50;99.90
13673;DHT22;6909;52.202;9.876;2022-11-15T03:55:18;10.40;99.90
13673;DHT22;6909;52.202;9.876;2022-11-15T03:57:46;10.20;99.90
13673;DHT22;6909;52.202;9.876;2022-11-15T04:00:15;10.00;99.90
13673;DHT22;6909;52.202;9.876;2022-11-15T04:02:42;9.70;99.90
13673;DHT22;6909;52.202;9.876;2022-11-15T04:05:10;9.40;99.90
13673;DHT22;6909;52.202;9.876;2022-11-15T04:07:37;9.10;99.90
13673;DHT22;6909;52.202;9.876;2022-11-15T04:10:04;9.00;99.90
13673;DHT22;6909;52.202;9.876;2022-11-15T04:12:32;9.00;99.90
13673;DHT22;6909;52.202;9.876;2022-11-15T04:15:01;8.90;99.90
13673;DHT22;6909;52.202;9.876;2022-11-15T04:17:35;9.00;99.90
13673;DHT22;6909;52.202;9.876;2022-11-15T04:20:03;9.00;99.90
13673;DHT22;6909;52.202;9.876;2022-11-15T04:22:52;8.90;99.90
13673;DHT22;6909;52.202;9.876;2022-11-15T04:25:36;8.90;99.90
13673;DHT22;6909;52.202;9.876;2022-11-15T04:28:03;8.70;99.90
13673;DHT22;6909;52.202;9.876;2022-11-15T04:30:30;8.60;99.90
13673;DHT22;6909;52.202;9.876;2022-11-15T04:32:56;8.40;99.90
13673;DHT22;6909;52.202;9.876;2022-11-15T04:35:23;8.40;99.90
13673;DHT22;6909;52.202;9.876;2022-11-15T04:37:51;8.40;99.90
13673;DHT22;6909;52.202;9.876;2022-11-15T04:40:18;8.60;99.90
13673;DHT22;6909;52.202;9.876;2022-11-15T04:42:45;8.90;99.90
13673;DHT22;6909;52.202;9.876;2022-11-15T04:45:12;9.20;99.90
13673;DHT22;6909;52.202;9.876;2022-11-15T04:47:38;9.30;99.90
13673;DHT22;6909;52.202;9.876;2022-11-15T04:50:06;9.50;99.90
13673;DHT22;6909;52.202;9.876;2022-11-15T04:52:33;9.60;99.90
13673;DHT22;6909;52.202;9.876;2022-11-15T04:55:01;9.60;99.90
13673;DHT22;6909;52.202;9.876;2022-11-15T04:57:27;9.50;99.90
13673;DHT22;6909;52.202;9.876;2022-11-15T04:59:54;9.70;99.90
13673;DHT22;6909;52.202;9.876;2022-11-15T05:02:21;9.90;99.90
13673;DHT22;6909;52.202;9.876;2022-11-15T05:04:47;9.70;99.90
13673;DHT22;6909;52.202;9.876;2022-11-15T05:07:14;9.50;99.90
13673;DHT22;6909;52.202;9.876;2022-11-15T05:09:41;9.50;99.90
13673;DHT22;6909;52.202;9.876;2022-11-15T05:12:09;9.40;99.90
13673;DHT22;6909;52.202;9.876;2022-11-15T05:14:36;9.30;99.90
13673;DHT22;6909;52.202;9.876;2022-11-15T05:17:02;9.10;99.90
13673;DHT22;6909;52.202;9.876;2022-11-15T05:19:32;9.00;99.90
13673;DHT22;6909;52.202;9.876;2022-11-15T05:21:58;9.10;99.90
13673;DHT22;6909;52.202;9.876;2022-11-15T05:24:25;9.40;99.90
13673;DHT22;6909;52.202;9.876;2022-11-15T05:26:52;9.50;99.90
13673;DHT22;6909;52.202;9.876;2022-11-15T05:29:20;9.80;99.90
13673;DHT22;6909;52.202;9.876;2022-11-15T05:31:47;10.20;99.90
13673;DHT22;6909;52.202;9.876;2022-11-15T05:34:13;10.30;99.90
13673;DHT22;6909;52.202;9.876;2022-11-15T05:36:41;10.20;99.90
13673;DHT22;6909;52.202;9.876;2022-11-15T05:39:10;10.10;99.90
13673;DHT22;6909;52.202;9.876;2022-11-15T05:41:39;10.20;99.90
13673;DHT22;6909;52.202;9.876;2022-11-15T05:44:09;10.40;99.90
13673;DHT22;6909;52.202;9.876;2022-11-15T05:46:39;10.10;99.90
13673;DHT22;6909;52.202;9.876;2022-11-15T05:49:09;9.80;99.90
13673;DHT22;6909;52.202;9.876;2022-11-15T05:51:37;9.50;99.90
13673;DHT22;6909;52.202;9.876;2022-11-15T05:54:03;9.20;99.90
13673;DHT22;6909;52.202;9.876;2022-11-15T05:56:31;9.00;99.90
13673;DHT22;6909;52.202;9.876;2022-11-15T05:58:58;8.80;99.90
13673;DHT22;6909;52.202;9.876;2022-11-15T06:01:26;8.60;99.90
13673;DHT22;6909;52.202;9.876;2022-11-15T06:03:54;8.40;99.90
13673;DHT22;6909;52.202;9.876;2022-11-15T06:06:21;8.20;99.90
13673;DHT22;6909;52.202;9.876;2022-11-15T06:08:48;8.00;99.90
13673;DHT22;6909;52.202;9.876;2022-11-15T06:11:14;7.90;99.90
13673;DHT22;6909;52.202;9.876;2022-11-15T06:13:41;7.90;99.90
13673;DHT22;6909;52.202;9.876;2022-11-15T06:16:08;7.80;99.90
13673;DHT22;6909;52.202;9.876;2022-11-15T06:18:35;7.70;99.90
13673;DHT22;6909;52.202;9.876;2022-11-15T06:21:04;7.70;99.90
13673;DHT22;6909;52.202;9.876;2022-11-15T06:23:32;7.70;99.90
13673;DHT22;6909;52.202;9.876;2022-11-15T06:26:00;7.70;99.90
13673;DHT22;6909;52.202;9.876;2022-11-15T06:28:28;7.70;99.90
13673;DHT22;6909;52.202;9.876;2022-11-15T06:30:55;7.70;99.90
13673;DHT22;6909;52.202;9.876;2022-11-15T06:33:22;7.80;99.90
13673;DHT22;6909;52.202;9.876;2022-11-15T06:35:49;8.00;99.90
13673;DHT22;6909;52.202;9.876;2022-11-15T06:38:17;8.20;99.90
13673;DHT22;6909;52.202;9.876;2022-11-15T06:40:44;8.40;99.90
13673;DHT22;6909;52.202;9.876;2022-11-15T06:43:10;8.50;99.90
13673;DHT22;6909;52.202;9.876;2022-11-15T06:45:37;8.50;99.90
13673;DHT22;6909;52.202;9.876;2022-11-15T06:48:05;8.60;99.90
13673;DHT22;6909;52.202;9.876;2022-11-15T06:50:32;8.70;99.90
13673;DHT22;6909;52.202;9.876;2022-11-15T06:53:01;8.90;99.90
13673;DHT22;6909;52.202;9.876;2022-11-15T06:55:29;9.00;99.90
13673;DHT22;6909;52.202;9.876;2022-11-15T06:57:56;9.10;99.90
13673;DHT22;6909;52.202;9.876;2022-11-15T07:00:23;9.10;99.90
13673;DHT22;6909;52.202;9.876;2022-11-15T07:02:50;9.20;99.90
13673;DHT22;6909;52.202;9.876;2022-11-15T07:05:17;9.60;99.90
13673;DHT22;6909;52.202;9.876;2022-11-15T07:07:50;9.70;99.90
13673;DHT22;6909;52.202;9.876;2022-11-15T07:10:17;9.70;99.90
13673;DHT22;6909;52.202;9.876;2022-11-15T07:12:48;9.70;99.90
13673;DHT22;6909;52.202;9.876;2022-11-15T07:15:15;9.70;99.90
13673;DHT22;6909;52.202;9.876;2022-11-15T07:17:41;9.60;99.90
13673;DHT22;6909;52.202;9.876;2022-11-15T07:20:09;9.60;99.90
13673;DHT22;6909;52.202;9.876;2022-11-15T07:22:36;10.10;99.90
13673;DHT22;6909;52.202;9.876;2022-11-15T07:25:03;10.60;99.90
13673;DHT22;6909;52.202;9.876;2022-11-15T07:27:30;11.10;99.90
13673;DHT22;6909;52.202;9.876;2022-11-15T07:29:58;11.60;99.90
13673;DHT22;6909;52.202;9.876;2022-11-15T07:32:25;12.10;99.90
13673;DHT22;6909;52.202;9.876;2022-11-15T07:34:52;12.60;99.90
13673;DHT22;6909;52.202;9.876;2022-11-15T07:37:18;12.90;99.90
13673;DHT22;6909;52.202;9.876;2022-11-15T07:39:45;13.10;99.90
13673;DHT22;6909;52.202;9.876;2022-11-15T07:42:12;12.80;99.90
13673;DHT22;6909;52.202;9.876;2022-11-15T07:44:57;12.70;99.90
13673;DHT22;6909;52.202;9.876;2022-11-15T07:47:24;12.80;99.90
13673;DHT22;6909;52.202;9.876;2022-11-15T07:49:51;12.70;99.90
13673;DHT22;6909;52.202;9.876;2022-11-15T07:52:17;12.10;99.90
13673;DHT22;6909;52.202;9.876;2022-11-15T07:54:44;11.50;99.90
13673;DHT22;6909;52.202;9.876;2022-11-15T07:57:11;11.10;99.90
13673;DHT22;6909;52.202;9.876;2022-11-15T07:59:37;10.90;99.90
13673;DHT22;6909;52.202;9.876;2022-11-15T08:02:05;11.00;99.90
13673;DHT22;6909;52.202;9.876;2022-11-15T08:04:32;11.00;99.90
13673;DHT22;6909;52.202;9.876;2022-11-15T08:06:59;10.80;99.90
13673;DHT22;6909;52.202;9.876;2022-11-15T08:09:25;10.80;99.90
13673;DHT22;6909;52.202;9.876;2022-11-15T08:11:52;10.70;99.90
13673;DHT22;6909;52.202;9.876;2022-11-15T08:14:19;10.60;99.90
13673;DHT22;6909;52.202;9.876;2022-11-15T08:16:47;10.60;99.90
13673;DHT22;6909;52.202;9.876;2022-11-15T08:19:15;10.70;99.90
13673;DHT22;6909;52.202;9.876;2022-11-15T08:21:42;10.80;99.90
13673;DHT22;6909;52.202;9.876;2022-11-15T08:24:09;10.90;99.90
13673;DHT22;6909;52.202;9.876;2022-11-15T08:26:36;11.10;99.90
13673;DHT22;6909;52.202;9.876;2022-11-15T08:29:03;11.30;99.90
13673;DHT22;6909;52.202;9.876;2022-11-15T08:31:30;11.50;99.90
13673;DHT22;6909;52.202;9.876;2022-11-15T08:33:57;11.70;99.90
13673;DHT22;6909;52.202;9.876;2022-11-15T08:36:25;12.00;99.90
13673;DHT22;6909;52.202;9.876;2022-11-15T08:38:51;12.20;99.90
13673;DHT22;6909;52.202;9.876;2022-11-15T08:41:23;12.40;99.90
13673;DHT22;6909;52.202;9.876;2022-11-15T08:43:51;12.50;99.90
13673;DHT22;6909;52.202;9.876;2022-11-15T08:46:17;12.50;99.90
13673;DHT22;6909;52.202;9.876;2022-11-15T08:48:44;12.50;99.90
13673;DHT22;6909;52.202;9.876;2022-11-15T08:51:11;12.70;99.90
13673;DHT22;6909;52.202;9.876;2022-11-15T08:53:39;12.80;99.90
13673;DHT22;6909;52.202;9.876;2022-11-15T08:56:07;12.90;99.90
13673;DHT22;6909;52.202;9.876;2022-11-15T08:58:34;12.90;99.90
13673;DHT22;6909;52.202;9.876;2022-11-15T09:01:01;12.90;99.90
13673;DHT22;6909;52.202;9.876;2022-11-15T09:03:28;13.00;99.90
13673;DHT22;6909;52.202;9.876;2022-11-15T09:05:55;12.90;99.90
13673;DHT22;6909;52.202;9.876;2022-11-15T09:08:22;13.00;99.90
13673;DHT22;6909;52.202;9.876;2022-11-15T09:10:51;13.10;99.90
13673;DHT22;6909;52.202;9.876;2022-11-15T09:13:18;13.10;99.90
13673;DHT22;6909;52.202;9.876;2022-11-15T09:15:44;13.10;99.90
13673;DHT22;6909;52.202;9.876;2022-11-15T09:18:11;13.20;99.90
13673;DHT22;6909;52.202;9.876;2022-11-15T09:20:38;13.20;99.90
13673;DHT22;6909;52.202;9.876;2022-11-15T09:23:05;13.30;99.90
13673;DHT22;6909;52.202;9.876;2022-11-15T09:25:32;13.40;99.90
13673;DHT22;6909;52.202;9.876;2022-11-15T09:28:00;13.40;99.90
13673;DHT22;6909;52.202;9.876;2022-11-15T09:30:27;13.40;99.90
13673;DHT22;6909;52.202;9.876;2022-11-15T09:32:53;13.50;99.90
13673;DHT22;6909;52.202;9.876;2022-11-15T09:35:20;13.60;99.90
13673;DHT22;6909;52.202;9.876;2022-11-15T09:37:47;13.60;99.90
13673;DHT22;6909;52.202;9.876;2022-11-15T09:40:15;13.60;99.90
13673;DHT22;6909;52.202;9.876;2022-11-15T09:42:57;13.60;99.90
13673;DHT22;6909;52.202;9.876;2022-11-15T09:45:34;13.60;99.90
13673;DHT22;6909;52.202;9.876;2022-11-15T09:48:24;13.60;99.90
13673;DHT22;6909;52.202;9.876;2022-11-15T09:50:53;13.70;99.90
13673;DHT22;6909;52.202;9.876;2022-11-15T09:53:27;13.80;99.90
13673;DHT22;6909;52.202;9.876;2022-11-15T09:56:00;14.00;99.90
13673;DHT22;6909;52.202;9.876;2022-11-15T09:58:34;14.00;99.90
13673;DHT22;6909;52.202;9.876;2022-11-15T10:01:07;14.10;99.90
13673;DHT22;6909;52.202;9.876;2022-11-15T10:03:37;14.20;99.90
13673;DHT22;6909;52.202;9.876;2022-11-15T10:06:09;14.20;99.90
13673;DHT22;6909;52.202;9.876;2022-11-15T10:08:47;14.20;99.90
13673;DHT22;6909;52.202;9.876;2022-11-15T10:11:19;14.20;99.90
13673;DHT22;6909;52.202;9.876;2022-11-15T10:13:48;14.10;99.90
13673;DHT22;6909;52.202;9.876;2022-11-15T10:16:41;14.10;99.90
13673;DHT22;6909;52.202;9.876;2022-11-15T10:19:16;13.80;99.90
13673;DHT22;6909;52.202;9.876;2022-11-15T10:21:53;13.80;99.90
13673;DHT22;6909;52.202;9.876;2022-11-15T10:24:26;13.90;99.90
13673;DHT22;6909;52.202;9.876;2022-11-15T10:26:54;14.10;99.90
13673;DHT22;6909;52.202;9.876;2022-11-15T10:29:23;14.10;99.90
13673;DHT22;6909;52.202;9.876;2022-11-15T10:31:52;14.20;99.90
13673;DHT22;6909;52.202;9.876;2022-11-15T10:34:21;14.20;99.90
13673;DHT22;6909;52.202;9.876;2022-11-15T10:36:55;14.10;99.90
13673;DHT22;6909;52.202;9.876;2022-11-15T10:39:22;14.20;99.90
13673;DHT22;6909;52.202;9.876;2022-11-15T10:41:48;14.10;99.90
13673;DHT22;6909;52.202;9.876;2022-11-15T10:44:21;14.00;99.90
13673;DHT22;6909;52.202;9.876;2022-11-15T10:47:06;14.00;99.90
13673;DHT22;6909;52.202;9.876;2022-11-15T10:49:34;13.80;99.90
13673;DHT22;6909;52.202;9.876;2022-11-15T10:52:04;13.80;99.90
13673;DHT22;6909;52.202;9.876;2022-11-15T10:54:42;13.80;99.90
13673;DHT22;6909;52.202;9.876;2022-11-15T10:57:13;13.80;99.90
13673;DHT22;6909;52.202;9.876;2022-11-15T10:59:45;13.90;99.90
13673;DHT22;6909;52.202;9.876;2022-11-15T11:02:28;13.90;99.90
13673;DHT22;6909;52.202;9.876;2022-11-15T11:04:55;13.90;99.90
13673;DHT22;6909;52.202;9.876;2022-11-15T11:07:24;13.90;99.90
13673;DHT22;6909;52.202;9.876;2022-11-15T11:09:57;13.80;99.90
13673;DHT22;6909;52.202;9.876;2022-11-15T11:12:28;13.80;99.90
13673;DHT22;6909;52.202;9.876;2022-11-15T11:14:57;13.80;99.90
13673;DHT22;6909;52.202;9.876;2022-11-15T11:17:32;13.80;99.90
13673;DHT22;6909;52.202;9.876;2022-11-15T11:20:10;13.70;99.90
13673;DHT22;6909;52.202;9.876;2022-11-15T11:25:31;13.60;99.90
13673;DHT22;6909;52.202;9.876;2022-11-15T11:28:17;13.60;99.90
13673;DHT22;6909;52.202;9.876;2022-11-15T11:30:55;13.60;99.90
13673;DHT22;6909;52.202;9.876;2022-11-15T11:33:31;13.60;99.90
13673;DHT22;6909;52.202;9.876;2022-11-15T11:36:11;13.50;99.90
13673;DHT22;6909;52.202;9.876;2022-11-15T11:38:49;13.40;99.90
13673;DHT22;6909;52.202;9.876;2022-11-15T11:41:24;13.40;99.90
13673;DHT22;6909;52.202;9.876;2022-11-15T11:44:05;13.40;99.90
13673;DHT22;6909;52.202;9.876;2022-11-15T11:46:49;13.40;99.90
13673;DHT22;6909;52.202;9.876;2022-11-15T11:49:24;13.30;99.90
13673;DHT22;6909;52.202;9.876;2022-11-15T11:51:56;13.30;99.90
13673;DHT22;6909;52.202;9.876;2022-11-15T11:54:30;13.20;99.90
13673;DHT22;6909;52.202;9.876;2022-11-15T11:57:01;13.30;99.90
13673;DHT22;6909;52.202;9.876;2022-11-15T11:59:36;13.20;99.90
13673;DHT22;6909;52.202;9.876;2022-11-15T12:02:13;13.20;99.90
13673;DHT22;6909;52.202;9.876;2022-11-15T12:04:45;13.10;99.90
13673;DHT22;6909;52.202;9.876;2022-11-15T12:07:19;13.20;99.90
13673;DHT22;6909;52.202;9.876;2022-11-15T12:09:51;13.20;99.90
13673;DHT22;6909;52.202;9.876;2022-11-15T12:12:25;13.20;99.90
13673;DHT22;6909;52.202;9.876;2022-11-15T12:14:56;13.20;99.90
13673;DHT22;6909;52.202;9.876;2022-11-15T12:17:25;13.20;99.90
13673;DHT22;6909;52.202;9.876;2022-11-15T12:19:56;13.20;99.90
13673;DHT22;6909;52.202;9.876;2022-11-15T12:22:28;13.20;99.90
13673;DHT22;6909;52.202;9.876;2022-11-15T12:25:03;13.10;99.90
13673;DHT22;6909;52.202;9.876;2022-11-15T12:27:33;13.20;99.90
13673;DHT22;6909;52.202;9.876;2022-11-15T12:30:04;13.20;99.90
13673;DHT22;6909;52.202;9.876;2022-11-15T12:32:35;13.30;99.90
13673;DHT22;6909;52.202;9.876;2022-11-15T12:35:20;13.30;99.90
13673;DHT22;6909;52.202;9.876;2022-11-15T12:37:49;13.40;99.90
13673;DHT22;6909;52.202;9.876;2022-11-15T12:40:20;13.40;99.90
13673;DHT22;6909;52.202;9.876;2022-11-15T12:42:59;13.40;99.90
13673;DHT22;6909;52.202;9.876;2022-11-15T12:45:28;13.50;99.90
13673;DHT22;6909;52.202;9.876;2022-11-15T12:50:58;13.40;99.90
13673;DHT22;6909;52.202;9.876;2022-11-15T12:53:27;13.40;99.90
13673;DHT22;6909;52.202;9.876;2022-11-15T12:56:09;13.40;99.90
13673;DHT22;6909;52.202;9.876;2022-11-15T12:58:45;13.40;99.90
13673;DHT22;6909;52.202;9.876;2022-11-15T13:01:52;13.30;99.90
13673;DHT22;6909;52.202;9.876;2022-11-15T13:04:23;13.30;99.90
13673;DHT22;6909;52.202;9.876;2022-11-15T13:06:54;13.40;99.90
13673;DHT22;6909;52.202;9.876;2022-11-15T13:09:52;13.40;99.90
13673;DHT22;6909;52.202;9.876;2022-11-15T13:12:49;13.40;99.90
13673;DHT22;6909;52.202;9.876;2022-11-15T13:15:53;13.40;99.90
13673;DHT22;6909;52.202;9.876;2022-11-15T13:18:34;13.40;99.90
13673;DHT22;6909;52.202;9.876;2022-11-15T13:21:03;13.50;99.90
13673;DHT22;6909;52.202;9.876;2022-11-15T13:23:55;13.50;99.90
13673;DHT22;6909;52.202;9.876;2022-11-15T13:26:31;13.60;99.90
13673;DHT22;6909;52.202;9.876;2022-11-15T13:28:57;13.60;99.90
13673;DHT22;6909;52.202;9.876;2022-11-15T13:31:29;13.60;99.90
13673;DHT22;6909;52.202;9.876;2022-11-15T13:34:00;13.60;99.90
13673;DHT22;6909;52.202;9.876;2022-11-15T13:36:30;13.60;99.90
13673;DHT22;6909;52.202;9.876;2022-11-15T13:39:02;13.60;99.90
13673;DHT22;6909;52.202;9.876;2022-11-15T13:41:30;13.60;99.90
13673;DHT22;6909;52.202;9.876;2022-11-15T13:43:58;13.60;99.90
13673;DHT22;6909;52.202;9.876;2022-11-15T13:46:27;13.70;99.90
13673;DHT22;6909;52.202;9.876;2022-11-15T13:48:56;13.70;99.90
13673;DHT22;6909;52.202;9.876;2022-11-15T13:51:36;13.70;99.90
13673;DHT22;6909;52.202;9.876;2022-11-15T13:54:13;13.80;99.90
13673;DHT22;6909;52.202;9.876;2022-11-15T13:56:43;13.80;99.90
13673;DHT22;6909;52.202;9.876;2022-11-15T13:59:15;13.90;99.90
13673;DHT22;6909;52.202;9.876;2022-11-15T14:01:42;13.90;99.90
13673;DHT22;6909;52.202;9.876;2022-11-15T14:04:13;13.90;99.90
13673;DHT22;6909;52.202;9.876;2022-11-15T14:06:45;13.90;99.90
13673;DHT22;6909;52.202;9.876;2022-11-15T14:09:39;13.90;99.90
13673;DHT22;6909;52.202;9.876;2022-11-15T14:12:28;13.90;99.90
13673;DHT22;6909;52.202;9.876;2022-11-15T14:14:56;13.90;99.90
13673;DHT22;6909;52.202;9.876;2022-11-15T14:17:34;13.80;99.90
13673;DHT22;6909;52.202;9.876;2022-11-15T14:20:02;13.80;99.90
13673;DHT22;6909;52.202;9.876;2022-11-15T14:22:30;13.80;99.90
13673;DHT22;6909;52.202;9.876;2022-11-15T14:25:14;13.70;99.90
13673;DHT22;6909;52.202;9.876;2022-11-15T14:27:42;13.70;99.90
13673;DHT22;6909;52.202;9.876;2022-11-15T14:30:13;13.60;99.90
13673;DHT22;6909;52.202;9.876;2022-11-15T14:32:44;13.60;99.90
13673;DHT22;6909;52.202;9.876;2022-11-15T14:35:14;13.60;99.90
13673;DHT22;6909;52.202;9.876;2022-11-15T14:37:41;13.50;99.90
13673;DHT22;6909;52.202;9.876;2022-11-15T14:40:13;13.50;99.90
13673;DHT22;6909;52.202;9.876;2022-11-15T14:42:41;13.50;99.90
13673;DHT22;6909;52.202;9.876;2022-11-15T14:45:12;13.40;99.90
13673;DHT22;6909;52.202;9.876;2022-11-15T14:47:40;13.40;99.90
13673;DHT22;6909;52.202;9.876;2022-11-15T14:50:10;13.30;99.90
13673;DHT22;6909;52.202;9.876;2022-11-15T14:52:37;13.30;99.90
13673;DHT22;6909;52.202;9.876;2022-11-15T14:55:15;13.30;99.90
13673;DHT22;6909;52.202;9.876;2022-11-15T14:57:43;13.30;99.90
13673;DHT22;6909;52.202;9.876;2022-11-15T15:00:11;13.20;99.90
13673;DHT22;6909;52.202;9.876;2022-11-15T15:02:39;13.20;99.90
13673;DHT22;6909;52.202;9.876;2022-11-15T15:05:13;13.20;99.90
13673;DHT22;6909;52.202;9.876;2022-11-15T15:07:40;13.20;99.90
13673;DHT22;6909;52.202;9.876;2022-11-15T15:10:08;13.20;99.90
13673;DHT22;6909;52.202;9.876;2022-11-15T15:12:36;13.10;99.90
13673;DHT22;6909;52.202;9.876;2022-11-15T15:15:03;13.00;99.90
13673;DHT22;6909;52.202;9.876;2022-11-15T15:17:30;12.90;99.90
13673;DHT22;6909;52.202;9.876;2022-11-15T15:19:57;12.80;99.90
13673;DHT22;6909;52.202;9.876;2022-11-15T15:22:27;12.70;99.90
13673;DHT22;6909;52.202;9.876;2022-11-15T15:24:55;12.70;99.90
13673;DHT22;6909;52.202;9.876;2022-11-15T15:27:22;12.60;99.90
13673;DHT22;6909;52.202;9.876;2022-11-15T15:29:50;12.60;99.90
13673;DHT22;6909;52.202;9.876;2022-11-15T15:32:17;12.50;99.90
13673;DHT22;6909;52.202;9.876;2022-11-15T15:34:43;12.60;99.90
13673;DHT22;6909;52.202;9.876;2022-11-15T15:37:21;12.60;99.90
13673;DHT22;6909;52.202;9.876;2022-11-15T15:39:49;12.60;99.90
13673;DHT22;6909;52.202;9.876;2022-11-15T15:42:16;12.60;99.90
13673;DHT22;6909;52.202;9.876;2022-11-15T15:44:43;12.50;99.90
13673;DHT22;6909;52.202;9.876;2022-11-15T15:47:12;12.50;99.90
13673;DHT22;6909;52.202;9.876;2022-11-15T15:49:39;12.50;99.90
13673;DHT22;6909;52.202;9.876;2022-11-15T15:52:06;12.40;99.90
13673;DHT22;6909;52.202;9.876;2022-11-15T15:54:33;12.50;99.90
13673;DHT22;6909;52.202;9.876;2022-11-15T15:56:59;12.50;99.90
13673;DHT22;6909;52.202;9.876;2022-11-15T15:59:26;12.40;99.90
13673;DHT22;6909;52.202;9.876;2022-11-15T16:01:53;12.40;99.90
13673;DHT22;6909;52.202;9.876;2022-11-15T16:04:21;12.30;99.90
13673;DHT22;6909;52.202;9.876;2022-11-15T16:06:48;12.20;99.90
13673;DHT22;6909;52.202;9.876;2022-11-15T16:09:18;12.10;99.90
13673;DHT22;6909;52.202;9.876;2022-11-15T16:12:05;12.10;99.90
13673;DHT22;6909;52.202;9.876;2022-11-15T16:14:32;12.20;99.90
13673;DHT22;6909;52.202;9.876;2022-11-15T16:16:59;12.30;99.90